sensor_id;sensor_type;location;lat;lon;timestamp;pressure;altitude;pressure_sealevel;temperature;humidity
12897;BME280;6516;35.028;32.372;2022-07-29T00:01:19;99207.69;;;26.58;45.83
12897;BME280;6516;35.028;32.372;2022-07-29T00:03:47;99204.69;;;26.61;44.53
12897;BME280;6516;35.028;32.372;2022-07-29T00:06:15;99206.81;;;26.30;43.43
12897;BME280;6516;35.028;32.372;2022-07-29T00:08:43;99208.88;;;26.09;44.29
12897;BME280;6516;35.028;32.372;2022-07-29T00:11:11;99208.91;;;25.90;45.58
12897;BME280;6516;35.028;32.372;2022-07-29T00:13:39;99209.78;;;25.81;47.69
12897;BME280;6516;35.028;32.372;2022-07-29T00:16:08;99212.28;;;26.11;49.23
12897;BME280;6516;35.028;32.372;2022-07-29T00:18:36;99217.31;;;26.87;48.70
12897;BME280;6516;35.028;32.372;2022-07-29T00:21:05;99210.84;;;27.15;48.38
12897;BME280;6516;35.028;32.372;2022-07-29T00:23:33;99209.56;;;26.75;49.48
12897;BME280;6516;35.028;32.372;2022-07-29T00:26:01;99210.69;;;26.45;50.90
12897;BME280;6516;35.028;32.372;2022-07-29T00:28:29;99213.63;;;26.34;52.81
12897;BME280;6516;35.028;32.372;2022-07-29T00:30:56;99213.66;;;26.15;54.87
12897;BME280;6516;35.028;32.372;2022-07-29T00:33:26;99211.88;;;26.33;55.72
12897;BME280;6516;35.028;32.372;2022-07-29T00:35:53;99217.00;;;26.90;55.91
12897;BME280;6516;35.028;32.372;2022-07-29T00:38:20;99215.84;;;27.10;55.62
12897;BME280;6516;35.028;32.372;2022-07-29T00:40:48;99214.22;;;26.82;58.46
12897;BME280;6516;35.028;32.372;2022-07-29T00:43:17;99211.09;;;26.60;62.65
12897;BME280;6516;35.028;32.372;2022-07-29T00:45:45;99218.16;;;26.34;64.54
12897;BME280;6516;35.028;32.372;2022-07-29T00:48:13;99219.66;;;26.09;67.61
12897;BME280;6516;35.028;32.372;2022-07-29T00:50:42;99212.31;;;26.65;67.64
12897;BME280;6516;35.028;32.372;2022-07-29T00:53:12;99210.16;;;27.13;66.29
12897;BME280;6516;35.028;32.372;2022-07-29T00:55:40;99213.75;;;27.32;67.24
12897;BME280;6516;35.028;32.372;2022-07-29T00:58:08;99215.00;;;26.92;68.21
12897;BME280;6516;35.028;32.372;2022-07-29T01:00:36;99216.19;;;26.63;69.07
12897;BME280;6516;35.028;32.372;2022-07-29T01:03:06;99218.41;;;26.40;71.12
12897;BME280;6516;35.028;32.372;2022-07-29T01:05:35;99215.78;;;26.21;72.86
12897;BME280;6516;35.028;32.372;2022-07-29T01:08:05;99212.31;;;26.65;72.30
12897;BME280;6516;35.028;32.372;2022-07-29T01:10:36;99216.88;;;26.92;71.36
12897;BME280;6516;35.028;32.372;2022-07-29T01:13:05;99215.72;;;26.94;71.05
12897;BME280;6516;35.028;32.372;2022-07-29T01:15:38;99210.78;;;26.63;72.16
12897;BME280;6516;35.028;32.372;2022-07-29T01:18:15;99205.66;;;26.33;73.05
12897;BME280;6516;35.028;32.372;2022-07-29T01:24:04;99209.50;;;25.75;75.14
12897;BME280;6516;35.028;32.372;2022-07-29T01:26:45;99200.53;;;26.30;74.63
12897;BME280;6516;35.028;32.372;2022-07-29T01:29:24;99202.50;;;26.91;71.65
12897;BME280;6516;35.028;32.372;2022-07-29T01:31:57;99200.03;;;26.80;70.39
12897;BME280;6516;35.028;32.372;2022-07-29T01:34:35;99197.31;;;26.53;70.95
12897;BME280;6516;35.028;32.372;2022-07-29T01:37:10;99202.16;;;26.23;72.26
12897;BME280;6516;35.028;32.372;2022-07-29T01:39:43;99200.38;;;25.95;73.79
12897;BME280;6516;35.028;32.372;2022-07-29T01:42:21;99202.28;;;25.75;74.92
12897;BME280;6516;35.028;32.372;2022-07-29T01:44:57;99206.25;;;25.62;75.67
12897;BME280;6516;35.028;32.372;2022-07-29T01:47:32;99204.38;;;25.81;76.95
12897;BME280;6516;35.028;32.372;2022-07-29T01:50:05;99199.75;;;26.10;75.64
12897;BME280;6516;35.028;32.372;2022-07-29T01:52:42;99198.63;;;26.13;74.94
12897;BME280;6516;35.028;32.372;2022-07-29T01:55:15;99203.50;;;26.00;75.35
12897;BME280;6516;35.028;32.372;2022-07-29T01:57:46;99204.09;;;25.84;75.34
12897;BME280;6516;35.028;32.372;2022-07-29T02:00:17;99201.69;;;25.72;76.61
12897;BME280;6516;35.028;32.372;2022-07-29T02:02:47;99205.25;;;25.63;76.97
12897;BME280;6516;35.028;32.372;2022-07-29T02:05:17;99200.97;;;25.79;76.02
12897;BME280;6516;35.028;32.372;2022-07-29T02:07:47;99204.50;;;25.99;73.52
12897;BME280;6516;35.028;32.372;2022-07-29T02:10:18;99202.50;;;25.91;73.23
12897;BME280;6516;35.028;32.372;2022-07-29T02:12:50;99206.13;;;25.73;72.41
12897;BME280;6516;35.028;32.372;2022-07-29T02:15:22;99200.72;;;25.54;72.26
12897;BME280;6516;35.028;32.372;2022-07-29T02:17:55;99195.50;;;25.33;72.22
12897;BME280;6516;35.028;32.372;2022-07-29T02:20:26;99199.59;;;25.18;71.87
12897;BME280;6516;35.028;32.372;2022-07-29T02:22:55;99197.09;;;25.26;72.70
12897;BME280;6516;35.028;32.372;2022-07-29T02:25:25;99191.72;;;26.01;73.39
12897;BME280;6516;35.028;32.372;2022-07-29T02:27:54;99197.00;;;25.93;73.04
12897;BME280;6516;35.028;32.372;2022-07-29T02:30:25;99195.16;;;25.74;73.78
12897;BME280;6516;35.028;32.372;2022-07-29T02:32:55;99185.56;;;25.53;75.23
12897;BME280;6516;35.028;32.372;2022-07-29T02:35:24;99196.50;;;25.32;76.48
12897;BME280;6516;35.028;32.372;2022-07-29T02:37:53;99194.47;;;25.15;77.17
12897;BME280;6516;35.028;32.372;2022-07-29T02:40:39;99200.59;;;25.08;78.81
12897;BME280;6516;35.028;32.372;2022-07-29T02:43:10;99198.97;;;26.00;75.14
12897;BME280;6516;35.028;32.372;2022-07-29T02:45:40;99202.19;;;26.40;72.67
12897;BME280;6516;35.028;32.372;2022-07-29T02:48:13;99206.00;;;26.20;71.87
12897;BME280;6516;35.028;32.372;2022-07-29T02:50:45;99200.41;;;25.85;72.83
12897;BME280;6516;35.028;32.372;2022-07-29T02:53:18;99197.91;;;25.55;73.70
12897;BME280;6516;35.028;32.372;2022-07-29T02:55:56;99195.94;;;25.29;74.44
12897;BME280;6516;35.028;32.372;2022-07-29T02:58:27;99193.22;;;25.10;74.86
12897;BME280;6516;35.028;32.372;2022-07-29T03:01:02;99187.19;;;25.82;70.68
12897;BME280;6516;35.028;32.372;2022-07-29T03:03:34;99188.75;;;26.31;68.07
12897;BME280;6516;35.028;32.372;2022-07-29T03:06:04;99188.28;;;26.08;67.12
12897;BME280;6516;35.028;32.372;2022-07-29T03:08:34;99193.47;;;25.73;64.33
12897;BME280;6516;35.028;32.372;2022-07-29T03:11:02;99193.09;;;25.49;64.57
12897;BME280;6516;35.028;32.372;2022-07-29T03:13:32;99194.50;;;25.25;64.31
12897;BME280;6516;35.028;32.372;2022-07-29T03:16:01;99202.72;;;25.04;65.26
12897;BME280;6516;35.028;32.372;2022-07-29T03:18:30;99197.97;;;25.82;61.27
12897;BME280;6516;35.028;32.372;2022-07-29T03:20:59;99199.66;;;26.39;63.63
12897;BME280;6516;35.028;32.372;2022-07-29T03:23:27;99200.97;;;25.98;65.58
12897;BME280;6516;35.028;32.372;2022-07-29T03:25:55;99203.28;;;25.55;67.83
12897;BME280;6516;35.028;32.372;2022-07-29T03:28:23;99199.63;;;25.37;68.01
12897;BME280;6516;35.028;32.372;2022-07-29T03:30:53;99197.59;;;25.20;70.82
12897;BME280;6516;35.028;32.372;2022-07-29T03:33:22;99203.56;;;24.95;72.61
12897;BME280;6516;35.028;32.372;2022-07-29T03:35:50;99196.63;;;25.59;71.20
12897;BME280;6516;35.028;32.372;2022-07-29T03:38:18;99195.28;;;26.28;67.86
12897;BME280;6516;35.028;32.372;2022-07-29T03:40:51;99192.78;;;26.17;66.63
12897;BME280;6516;35.028;32.372;2022-07-29T03:43:22;99199.25;;;25.88;67.28
12897;BME280;6516;35.028;32.372;2022-07-29T03:45:54;99197.16;;;25.72;67.76
12897;BME280;6516;35.028;32.372;2022-07-29T03:48:26;99186.00;;;25.48;68.41
12897;BME280;6516;35.028;32.372;2022-07-29T03:50:55;99192.38;;;25.28;68.20
12897;BME280;6516;35.028;32.372;2022-07-29T03:53:23;99195.34;;;25.25;68.03
12897;BME280;6516;35.028;32.372;2022-07-29T03:55:54;99194.50;;;25.25;67.11
12897;BME280;6516;35.028;32.372;2022-07-29T03:58:26;99191.13;;;25.32;66.57
12897;BME280;6516;35.028;32.372;2022-07-29T04:00:55;99191.94;;;25.42;67.33
12897;BME280;6516;35.028;32.372;2022-07-29T04:03:23;99197.19;;;25.53;68.09
12897;BME280;6516;35.028;32.372;2022-07-29T04:06:00;99194.47;;;25.63;67.78
12897;BME280;6516;35.028;32.372;2022-07-29T04:08:31;99200.13;;;25.69;67.59
12897;BME280;6516;35.028;32.372;2022-07-29T04:10:59;99193.72;;;25.80;67.76
12897;BME280;6516;35.028;32.372;2022-07-29T04:13:27;99194.16;;;25.94;67.63
12897;BME280;6516;35.028;32.372;2022-07-29T04:15:55;99194.69;;;26.07;67.67
12897;BME280;6516;35.028;32.372;2022-07-29T04:18:23;99188.66;;;26.23;67.25
12897;BME280;6516;35.028;32.372;2022-07-29T04:20:51;99192.41;;;26.39;66.15
12897;BME280;6516;35.028;32.372;2022-07-29T04:23:20;99190.75;;;26.56;63.30
12897;BME280;6516;35.028;32.372;2022-07-29T04:25:48;99189.81;;;26.74;60.64
12897;BME280;6516;35.028;32.372;2022-07-29T04:28:16;99193.94;;;26.96;59.58
12897;BME280;6516;35.028;32.372;2022-07-29T04:30:44;99194.34;;;27.19;57.40
12897;BME280;6516;35.028;32.372;2022-07-29T04:33:11;99187.84;;;27.47;55.64
12897;BME280;6516;35.028;32.372;2022-07-29T04:35:40;99194.75;;;27.84;56.12
12897;BME280;6516;35.028;32.372;2022-07-29T04:38:07;99186.06;;;28.32;49.30
12897;BME280;6516;35.028;32.372;2022-07-29T04:40:37;99190.72;;;28.89;45.05
12897;BME280;6516;35.028;32.372;2022-07-29T04:43:05;99190.47;;;29.40;42.96
12897;BME280;6516;35.028;32.372;2022-07-29T04:45:32;99186.09;;;29.79;42.94
12897;BME280;6516;35.028;32.372;2022-07-29T04:48:00;99185.66;;;30.06;42.26
12897;BME280;6516;35.028;32.372;2022-07-29T04:50:28;99182.25;;;30.28;41.09
12897;BME280;6516;35.028;32.372;2022-07-29T04:52:56;99186.22;;;30.56;40.53
12897;BME280;6516;35.028;32.372;2022-07-29T04:55:24;99199.50;;;30.89;36.96
12897;BME280;6516;35.028;32.372;2022-07-29T04:57:53;99195.09;;;31.41;35.87
12897;BME280;6516;35.028;32.372;2022-07-29T05:00:21;99188.16;;;32.13;32.49
12897;BME280;6516;35.028;32.372;2022-07-29T05:02:49;99186.19;;;33.15;34.41
12897;BME280;6516;35.028;32.372;2022-07-29T05:05:18;99182.38;;;33.94;34.62
12897;BME280;6516;35.028;32.372;2022-07-29T05:07:46;99184.06;;;34.56;33.68
12897;BME280;6516;35.028;32.372;2022-07-29T05:10:13;99191.06;;;35.25;33.00
12897;BME280;6516;35.028;32.372;2022-07-29T05:12:41;99193.09;;;35.77;31.69
12897;BME280;6516;35.028;32.372;2022-07-29T05:15:11;99196.03;;;36.08;31.97
12897;BME280;6516;35.028;32.372;2022-07-29T05:17:39;99191.78;;;36.38;32.04
12897;BME280;6516;35.028;32.372;2022-07-29T05:20:08;99201.03;;;36.50;31.30
12897;BME280;6516;35.028;32.372;2022-07-29T05:22:36;99204.59;;;36.70;31.64
12897;BME280;6516;35.028;32.372;2022-07-29T05:25:05;99208.13;;;36.83;31.60
12897;BME280;6516;35.028;32.372;2022-07-29T05:27:35;99203.66;;;36.95;32.68
12897;BME280;6516;35.028;32.372;2022-07-29T05:30:04;99210.81;;;37.03;32.79
12897;BME280;6516;35.028;32.372;2022-07-29T05:32:34;99208.50;;;36.93;33.34
12897;BME280;6516;35.028;32.372;2022-07-29T05:35:02;99210.97;;;37.08;33.39
12897;BME280;6516;35.028;32.372;2022-07-29T05:37:30;99205.47;;;37.21;34.54
12897;BME280;6516;35.028;32.372;2022-07-29T05:39:58;99205.09;;;37.04;35.14
12897;BME280;6516;35.028;32.372;2022-07-29T05:42:26;99205.59;;;36.82;35.66
12897;BME280;6516;35.028;32.372;2022-07-29T05:44:54;99204.16;;;36.60;37.17
12897;BME280;6516;35.028;32.372;2022-07-29T05:47:23;99213.44;;;36.65;37.35
12897;BME280;6516;35.028;32.372;2022-07-29T05:49:52;99216.03;;;36.47;37.58
12897;BME280;6516;35.028;32.372;2022-07-29T05:52:20;99219.19;;;36.38;37.90
12897;BME280;6516;35.028;32.372;2022-07-29T05:54:48;99225.53;;;36.12;38.52
12897;BME280;6516;35.028;32.372;2022-07-29T05:57:17;99224.06;;;36.03;38.72
12897;BME280;6516;35.028;32.372;2022-07-29T05:59:46;99224.28;;;35.95;39.72
12897;BME280;6516;35.028;32.372;2022-07-29T06:02:14;99232.94;;;35.92;38.82
12897;BME280;6516;35.028;32.372;2022-07-29T06:04:43;99224.28;;;35.95;39.18
12897;BME280;6516;35.028;32.372;2022-07-29T06:07:12;99233.56;;;36.07;38.44
12897;BME280;6516;35.028;32.372;2022-07-29T06:09:40;99231.47;;;36.16;38.65
12897;BME280;6516;35.028;32.372;2022-07-29T06:12:08;99234.41;;;36.34;37.64
12897;BME280;6516;35.028;32.372;2022-07-29T06:14:36;99228.25;;;36.71;36.75
12897;BME280;6516;35.028;32.372;2022-07-29T06:17:05;99227.97;;;36.85;37.11
12897;BME280;6516;35.028;32.372;2022-07-29T06:19:34;99238.91;;;36.98;35.99
12897;BME280;6516;35.028;32.372;2022-07-29T06:22:02;99236.72;;;37.20;35.31
12897;BME280;6516;35.028;32.372;2022-07-29T06:24:32;99238.66;;;37.50;34.88
12897;BME280;6516;35.028;32.372;2022-07-29T06:27:00;99245.13;;;37.69;34.28
12897;BME280;6516;35.028;32.372;2022-07-29T06:29:28;99240.53;;;37.87;33.73
12897;BME280;6516;35.028;32.372;2022-07-29T06:31:56;99245.94;;;38.00;33.57
12897;BME280;6516;35.028;32.372;2022-07-29T06:34:24;99248.63;;;37.82;34.08
12897;BME280;6516;35.028;32.372;2022-07-29T06:36:52;99250.84;;;37.92;33.37
12897;BME280;6516;35.028;32.372;2022-07-29T06:39:20;99253.16;;;37.95;34.07
12897;BME280;6516;35.028;32.372;2022-07-29T06:41:50;99256.66;;;38.08;33.94
12897;BME280;6516;35.028;32.372;2022-07-29T06:44:18;99260.78;;;37.99;35.42
12897;BME280;6516;35.028;32.372;2022-07-29T06:46:46;99258.56;;;37.83;36.72
12897;BME280;6516;35.028;32.372;2022-07-29T06:49:15;99260.44;;;37.83;37.22
12897;BME280;6516;35.028;32.372;2022-07-29T06:51:43;99258.56;;;37.46;37.45
12897;BME280;6516;35.028;32.372;2022-07-29T06:54:11;99258.72;;;37.51;38.56
12897;BME280;6516;35.028;32.372;2022-07-29T06:56:38;99266.75;;;37.52;38.68
12897;BME280;6516;35.028;32.372;2022-07-29T06:59:09;99257.78;;;37.32;39.61
12897;BME280;6516;35.028;32.372;2022-07-29T07:01:40;99256.59;;;37.15;40.32
12897;BME280;6516;35.028;32.372;2022-07-29T07:04:10;99265.88;;;37.21;39.98
12897;BME280;6516;35.028;32.372;2022-07-29T07:06:38;99266.28;;;37.24;40.16
12897;BME280;6516;35.028;32.372;2022-07-29T07:09:06;99268.78;;;37.32;40.20
12897;BME280;6516;35.028;32.372;2022-07-29T07:11:34;99279.31;;;37.35;40.26
12897;BME280;6516;35.028;32.372;2022-07-29T07:14:02;99282.38;;;37.21;40.28
12897;BME280;6516;35.028;32.372;2022-07-29T07:16:31;99274.53;;;37.11;40.37
12897;BME280;6516;35.028;32.372;2022-07-29T07:19:00;99280.25;;;37.16;39.94
12897;BME280;6516;35.028;32.372;2022-07-29T07:21:28;99284.28;;;37.14;40.33
12897;BME280;6516;35.028;32.372;2022-07-29T07:23:56;99288.22;;;37.31;40.76
12897;BME280;6516;35.028;32.372;2022-07-29T07:26:24;99291.88;;;37.62;39.56
12897;BME280;6516;35.028;32.372;2022-07-29T07:28:52;99291.50;;;37.59;40.48
12897;BME280;6516;35.028;32.372;2022-07-29T07:31:20;99292.75;;;37.56;37.90
12897;BME280;6516;35.028;32.372;2022-07-29T07:33:49;99289.50;;;37.72;39.18
12897;BME280;6516;35.028;32.372;2022-07-29T07:36:19;99293.47;;;37.76;39.60
12897;BME280;6516;35.028;32.372;2022-07-29T07:38:46;99293.72;;;37.75;39.62
12897;BME280;6516;35.028;32.372;2022-07-29T07:41:14;99294.47;;;37.88;38.84
12897;BME280;6516;35.028;32.372;2022-07-29T07:43:42;99295.28;;;37.95;39.54
12897;BME280;6516;35.028;32.372;2022-07-29T07:46:10;99298.03;;;37.95;40.45
12897;BME280;6516;35.028;32.372;2022-07-29T07:48:38;99300.94;;;38.00;41.17
12897;BME280;6516;35.028;32.372;2022-07-29T07:51:08;99295.25;;;38.26;42.53
12897;BME280;6516;35.028;32.372;2022-07-29T07:53:35;99302.00;;;38.55;41.49
12897;BME280;6516;35.028;32.372;2022-07-29T07:56:03;99300.31;;;38.29;36.45
12897;BME280;6516;35.028;32.372;2022-07-29T07:58:32;99291.03;;;38.24;37.31
12897;BME280;6516;35.028;32.372;2022-07-29T08:01:00;99294.09;;;38.40;38.60
12897;BME280;6516;35.028;32.372;2022-07-29T08:03:28;99300.56;;;38.21;39.14
12897;BME280;6516;35.028;32.372;2022-07-29T08:05:56;99297.88;;;38.15;38.97
12897;BME280;6516;35.028;32.372;2022-07-29T08:08:26;99292.09;;;37.92;39.18
12897;BME280;6516;35.028;32.372;2022-07-29T08:10:53;99295.44;;;38.07;38.56
12897;BME280;6516;35.028;32.372;2022-07-29T08:13:23;99297.16;;;37.95;38.16
12897;BME280;6516;35.028;32.372;2022-07-29T08:15:54;99300.31;;;37.67;38.40
12897;BME280;6516;35.028;32.372;2022-07-29T08:18:28;99290.94;;;37.81;37.91
12897;BME280;6516;35.028;32.372;2022-07-29T08:20:58;99291.63;;;37.70;36.13
12897;BME280;6516;35.028;32.372;2022-07-29T08:23:27;99295.63;;;37.74;35.89
12897;BME280;6516;35.028;32.372;2022-07-29T08:26:05;99299.66;;;37.72;37.23
12897;BME280;6516;35.028;32.372;2022-07-29T08:28:36;99287.13;;;37.82;34.98
12897;BME280;6516;35.028;32.372;2022-07-29T08:31:05;99285.72;;;37.98;35.64
12897;BME280;6516;35.028;32.372;2022-07-29T08:33:33;99288.19;;;37.81;35.79
12897;BME280;6516;35.028;32.372;2022-07-29T08:36:01;99296.94;;;38.27;33.62
12897;BME280;6516;35.028;32.372;2022-07-29T08:38:31;99288.00;;;38.32;33.61
12897;BME280;6516;35.028;32.372;2022-07-29T08:41:00;99288.81;;;38.14;33.30
12897;BME280;6516;35.028;32.372;2022-07-29T08:43:28;99300.63;;;38.15;33.40
12897;BME280;6516;35.028;32.372;2022-07-29T08:45:56;99290.09;;;38.36;34.01
12897;BME280;6516;35.028;32.372;2022-07-29T08:48:24;99293.84;;;37.86;33.06
12897;BME280;6516;35.028;32.372;2022-07-29T08:50:54;99294.84;;;38.23;33.64
12897;BME280;6516;35.028;32.372;2022-07-29T08:53:25;99289.94;;;38.31;34.09
12897;BME280;6516;35.028;32.372;2022-07-29T08:55:55;99288.31;;;38.48;34.42
12897;BME280;6516;35.028;32.372;2022-07-29T08:58:24;99288.97;;;38.44;34.47
12897;BME280;6516;35.028;32.372;2022-07-29T09:00:54;99283.13;;;38.34;33.68
12897;BME280;6516;35.028;32.372;2022-07-29T09:03:24;99283.22;;;38.52;34.43
12897;BME280;6516;35.028;32.372;2022-07-29T09:05:53;99282.72;;;38.55;34.89
12897;BME280;6516;35.028;32.372;2022-07-29T09:08:21;99282.34;;;38.51;34.84
12897;BME280;6516;35.028;32.372;2022-07-29T09:10:50;99273.75;;;38.41;34.67
12897;BME280;6516;35.028;32.372;2022-07-29T09:13:19;99296.53;;;38.24;34.81
12897;BME280;6516;35.028;32.372;2022-07-29T09:15:47;99283.09;;;38.16;34.73
12897;BME280;6516;35.028;32.372;2022-07-29T09:18:33;99289.75;;;38.26;34.18
12897;BME280;6516;35.028;32.372;2022-07-29T09:21:02;99287.00;;;38.02;35.22
12897;BME280;6516;35.028;32.372;2022-07-29T09:24:02;99284.53;;;38.18;34.29
12897;BME280;6516;35.028;32.372;2022-07-29T09:26:35;99288.13;;;38.19;34.63
12897;BME280;6516;35.028;32.372;2022-07-29T09:29:13;99274.25;;;38.32;33.41
12897;BME280;6516;35.028;32.372;2022-07-29T09:31:43;99274.41;;;38.37;33.63
12897;BME280;6516;35.028;32.372;2022-07-29T09:34:14;99277.28;;;38.48;34.35
12897;BME280;6516;35.028;32.372;2022-07-29T09:36:44;99278.38;;;38.47;33.72
12897;BME280;6516;35.028;32.372;2022-07-29T09:39:13;99274.72;;;38.71;32.59
12897;BME280;6516;35.028;32.372;2022-07-29T09:41:46;99268.31;;;38.77;32.46
12897;BME280;6516;35.028;32.372;2022-07-29T09:44:17;99263.91;;;38.94;32.02
12897;BME280;6516;35.028;32.372;2022-07-29T09:46:57;99266.91;;;39.11;31.79
12897;BME280;6516;35.028;32.372;2022-07-29T09:49:31;99262.13;;;39.18;31.87
12897;BME280;6516;35.028;32.372;2022-07-29T09:52:09;99252.88;;;39.12;32.11
12897;BME280;6516;35.028;32.372;2022-07-29T09:54:38;99259.38;;;39.00;30.41
12897;BME280;6516;35.028;32.372;2022-07-29T09:57:07;99262.97;;;38.82;31.37
12897;BME280;6516;35.028;32.372;2022-07-29T09:59:39;99264.19;;;38.86;32.71
12897;BME280;6516;35.028;32.372;2022-07-29T10:02:28;99272.66;;;38.67;31.74
12897;BME280;6516;35.028;32.372;2022-07-29T10:04:57;99266.94;;;38.68;30.56
12897;BME280;6516;35.028;32.372;2022-07-29T10:07:25;99263.56;;;38.66;29.03
12897;BME280;6516;35.028;32.372;2022-07-29T10:09:54;99268.69;;;38.63;30.07
12897;BME280;6516;35.028;32.372;2022-07-29T10:12:24;99273.97;;;38.64;28.61
12897;BME280;6516;35.028;32.372;2022-07-29T10:14:54;99265.69;;;38.46;31.77
12897;BME280;6516;35.028;32.372;2022-07-29T10:17:22;99263.63;;;38.78;31.02
12897;BME280;6516;35.028;32.372;2022-07-29T10:19:50;99261.63;;;38.91;32.38
12897;BME280;6516;35.028;32.372;2022-07-29T10:22:19;99264.16;;;38.93;30.80
12897;BME280;6516;35.028;32.372;2022-07-29T10:24:47;99262.94;;;38.89;32.00
12897;BME280;6516;35.028;32.372;2022-07-29T10:27:15;99257.84;;;38.86;32.46
12897;BME280;6516;35.028;32.372;2022-07-29T10:29:43;99264.03;;;38.63;32.58
12897;BME280;6516;35.028;32.372;2022-07-29T10:32:31;99249.56;;;38.68;32.62
12897;BME280;6516;35.028;32.372;2022-07-29T10:35:38;99251.25;;;38.69;31.79
12897;BME280;6516;35.028;32.372;2022-07-29T10:38:27;99261.63;;;38.91;33.16
12897;BME280;6516;35.028;32.372;2022-07-29T10:41:12;99260.22;;;39.18;32.12
12897;BME280;6516;35.028;32.372;2022-07-29T10:43:56;99248.34;;;38.82;33.55
12897;BME280;6516;35.028;32.372;2022-07-29T10:46:27;99253.63;;;38.83;30.27
12897;BME280;6516;35.028;32.372;2022-07-29T10:49:10;99248.50;;;38.44;30.87
12897;BME280;6516;35.028;32.372;2022-07-29T10:52:04;99252.88;;;38.58;31.83
12897;BME280;6516;35.028;32.372;2022-07-29T10:54:45;99251.91;;;38.46;31.43
12897;BME280;6516;35.028;32.372;2022-07-29T10:57:25;99247.25;;;38.65;31.20
12897;BME280;6516;35.028;32.372;2022-07-29T11:02:59;99240.31;;;38.80;29.67
12897;BME280;6516;35.028;32.372;2022-07-29T11:05:29;99233.75;;;38.81;29.58
12897;BME280;6516;35.028;32.372;2022-07-29T11:08:19;99234.34;;;38.83;28.66
12897;BME280;6516;35.028;32.372;2022-07-29T11:10:50;99233.25;;;38.48;28.57
12897;BME280;6516;35.028;32.372;2022-07-29T11:13:49;99231.16;;;38.44;29.39
12897;BME280;6516;35.028;32.372;2022-07-29T11:16:19;99220.19;;;38.19;29.01
12897;BME280;6516;35.028;32.372;2022-07-29T11:19:22;99220.13;;;38.50;28.54
12897;BME280;6516;35.028;32.372;2022-07-29T11:21:52;99223.84;;;38.56;27.86
12897;BME280;6516;35.028;32.372;2022-07-29T11:24:23;99220.28;;;38.55;26.01
12897;BME280;6516;35.028;32.372;2022-07-29T11:27:10;99220.13;;;38.86;25.84
12897;BME280;6516;35.028;32.372;2022-07-29T11:29:48;99209.44;;;38.36;24.67
12897;BME280;6516;35.028;32.372;2022-07-29T11:32:21;99219.31;;;38.43;23.55
12897;BME280;6516;35.028;32.372;2022-07-29T11:35:11;99216.38;;;38.45;24.10
12897;BME280;6516;35.028;32.372;2022-07-29T11:37:42;99208.81;;;38.16;24.44
12897;BME280;6516;35.028;32.372;2022-07-29T11:40:15;99205.91;;;38.11;23.89
12897;BME280;6516;35.028;32.372;2022-07-29T11:42:46;99213.19;;;38.23;23.84
12897;BME280;6516;35.028;32.372;2022-07-29T11:45:19;99204.16;;;38.34;24.03
12897;BME280;6516;35.028;32.372;2022-07-29T11:47:53;99200.31;;;38.60;22.83
12897;BME280;6516;35.028;32.372;2022-07-29T11:50:29;99200.78;;;38.57;21.57
12897;BME280;6516;35.028;32.372;2022-07-29T11:53:00;99205.75;;;38.66;23.40
12897;BME280;6516;35.028;32.372;2022-07-29T11:55:30;99193.69;;;38.67;22.72
12897;BME280;6516;35.028;32.372;2022-07-29T11:58:01;99199.41;;;38.84;21.96
12897;BME280;6516;35.028;32.372;2022-07-29T12:00:31;99202.34;;;38.89;23.68
12897;BME280;6516;35.028;32.372;2022-07-29T12:03:01;99201.00;;;38.55;23.54
12897;BME280;6516;35.028;32.372;2022-07-29T12:05:33;99203.19;;;38.47;23.23
12897;BME280;6516;35.028;32.372;2022-07-29T12:08:14;99203.91;;;38.60;23.79
12897;BME280;6516;35.028;32.372;2022-07-29T12:10:46;99195.94;;;38.52;24.16
12897;BME280;6516;35.028;32.372;2022-07-29T12:13:15;99194.38;;;38.38;25.79
12897;BME280;6516;35.028;32.372;2022-07-29T12:15:51;99208.63;;;38.53;25.27
12897;BME280;6516;35.028;32.372;2022-07-29T12:18:21;99195.59;;;38.24;27.46
12897;BME280;6516;35.028;32.372;2022-07-29T12:20:56;99193.06;;;37.98;26.29
12897;BME280;6516;35.028;32.372;2022-07-29T12:23:27;99201.06;;;37.44;28.47
12897;BME280;6516;35.028;32.372;2022-07-29T12:25:55;99208.25;;;37.45;27.15
12897;BME280;6516;35.028;32.372;2022-07-29T12:28:24;99189.19;;;37.50;26.13
12897;BME280;6516;35.028;32.372;2022-07-29T12:30:52;99194.53;;;37.45;27.36
12897;BME280;6516;35.028;32.372;2022-07-29T12:33:22;99186.25;;;37.52;28.20
12897;BME280;6516;35.028;32.372;2022-07-29T12:35:54;99189.59;;;37.54;28.23
12897;BME280;6516;35.028;32.372;2022-07-29T12:38:26;99191.94;;;37.57;26.16
12897;BME280;6516;35.028;32.372;2022-07-29T12:40:54;99197.97;;;37.34;26.57
12897;BME280;6516;35.028;32.372;2022-07-29T12:43:24;99201.72;;;37.02;26.64
12897;BME280;6516;35.028;32.372;2022-07-29T12:45:53;99195.44;;;36.95;26.80
12897;BME280;6516;35.028;32.372;2022-07-29T12:48:33;99189.59;;;36.72;26.44
12897;BME280;6516;35.028;32.372;2022-07-29T12:51:03;99188.34;;;36.68;26.49
12897;BME280;6516;35.028;32.372;2022-07-29T12:53:35;99187.47;;;36.74;27.34
12897;BME280;6516;35.028;32.372;2022-07-29T12:56:04;99188.75;;;36.65;28.78
12897;BME280;6516;35.028;32.372;2022-07-29T12:58:34;99193.22;;;36.47;29.73
12897;BME280;6516;35.028;32.372;2022-07-29T13:01:08;99190.94;;;36.44;29.58
12897;BME280;6516;35.028;32.372;2022-07-29T13:03:49;99193.94;;;36.23;31.96
12897;BME280;6516;35.028;32.372;2022-07-29T13:06:36;99195.63;;;35.91;31.96
12897;BME280;6516;35.028;32.372;2022-07-29T13:09:09;99190.16;;;35.78;32.66
12897;BME280;6516;35.028;32.372;2022-07-29T13:11:40;99207.38;;;35.66;33.75
12897;BME280;6516;35.028;32.372;2022-07-29T13:14:11;99196.38;;;35.33;34.30
12897;BME280;6516;35.028;32.372;2022-07-29T13:17:03;99195.66;;;35.18;35.19
12897;BME280;6516;35.028;32.372;2022-07-29T13:19:37;99200.53;;;35.16;31.99
12897;BME280;6516;35.028;32.372;2022-07-29T13:22:06;99188.72;;;35.16;33.07
12897;BME280;6516;35.028;32.372;2022-07-29T13:24:50;99195.91;;;35.17;34.39
12897;BME280;6516;35.028;32.372;2022-07-29T13:27:20;99195.19;;;34.95;34.21